sensor_id;sensor_type;location;lat;lon;timestamp;P1;durP1;ratioP1;P2;durP2;ratioP2
16115;SDS011;8162;47.104;15.432;2023-08-06T00:01:39;1.07;;;1.07;;
16115;SDS011;8162;47.104;15.432;2023-08-06T00:04:40;1.43;;;1.07;;
16115;SDS011;8162;47.104;15.432;2023-08-06T00:07:41;1.00;;;0.97;;
16115;SDS011;8162;47.104;15.432;2023-08-06T00:10:42;1.53;;;1.40;;
16115;SDS011;8162;47.104;15.432;2023-08-06T00:13:43;3.37;;;1.50;;
16115;SDS011;8162;47.104;15.432;2023-08-06T00:16:44;1.73;;;1.20;;
16115;SDS011;8162;47.104;15.432;2023-08-06T00:19:45;2.70;;;1.20;;
16115;SDS011;8162;47.104;15.432;2023-08-06T00:22:46;1.43;;;1.20;;
16115;SDS011;8162;47.104;15.432;2023-08-06T00:25:47;1.67;;;1.30;;
16115;SDS011;8162;47.104;15.432;2023-08-06T00:28:48;1.80;;;1.37;;
16115;SDS011;8162;47.104;15.432;2023-08-06T00:31:49;4.80;;;1.50;;
16115;SDS011;8162;47.104;15.432;2023-08-06T00:34:50;2.30;;;1.27;;
16115;SDS011;8162;47.104;15.432;2023-08-06T00:37:51;2.87;;;2.00;;
16115;SDS011;8162;47.104;15.432;2023-08-06T00:40:52;2.03;;;1.33;;
16115;SDS011;8162;47.104;15.432;2023-08-06T00:43:53;1.67;;;1.27;;
16115;SDS011;8162;47.104;15.432;2023-08-06T00:46:55;2.47;;;1.60;;
16115;SDS011;8162;47.104;15.432;2023-08-06T00:49:56;3.40;;;1.97;;
16115;SDS011;8162;47.104;15.432;2023-08-06T00:52:57;2.27;;;2.07;;
16115;SDS011;8162;47.104;15.432;2023-08-06T00:55:58;4.20;;;1.80;;
16115;SDS011;8162;47.104;15.432;2023-08-06T00:59:00;2.13;;;1.40;;
16115;SDS011;8162;47.104;15.432;2023-08-06T01:02:01;3.10;;;1.80;;
16115;SDS011;8162;47.104;15.432;2023-08-06T01:05:02;1.70;;;1.17;;
16115;SDS011;8162;47.104;15.432;2023-08-06T01:08:11;1.83;;;1.47;;
16115;SDS011;8162;47.104;15.432;2023-08-06T01:11:31;1.53;;;1.43;;
16115;SDS011;8162;47.104;15.432;2023-08-06T01:18:10;2.37;;;1.20;;
16115;SDS011;8162;47.104;15.432;2023-08-06T01:21:15;3.70;;;1.77;;
16115;SDS011;8162;47.104;15.432;2023-08-06T01:24:16;3.93;;;1.60;;
16115;SDS011;8162;47.104;15.432;2023-08-06T01:27:20;3.30;;;1.70;;
16115;SDS011;8162;47.104;15.432;2023-08-06T01:30:27;3.00;;;1.73;;
16115;SDS011;8162;47.104;15.432;2023-08-06T01:33:29;3.90;;;1.50;;
16115;SDS011;8162;47.104;15.432;2023-08-06T01:36:33;5.50;;;1.80;;
16115;SDS011;8162;47.104;15.432;2023-08-06T01:39:34;1.80;;;1.70;;
16115;SDS011;8162;47.104;15.432;2023-08-06T01:42:35;4.20;;;1.40;;
16115;SDS011;8162;47.104;15.432;2023-08-06T01:45:36;1.37;;;1.20;;
16115;SDS011;8162;47.104;15.432;2023-08-06T01:48:37;1.63;;;1.33;;
16115;SDS011;8162;47.104;15.432;2023-08-06T01:51:38;3.87;;;1.57;;
16115;SDS011;8162;47.104;15.432;2023-08-06T01:54:39;5.40;;;1.50;;
16115;SDS011;8162;47.104;15.432;2023-08-06T01:57:40;2.47;;;1.27;;
16115;SDS011;8162;47.104;15.432;2023-08-06T02:00:41;3.60;;;1.60;;
16115;SDS011;8162;47.104;15.432;2023-08-06T02:03:42;3.40;;;1.50;;
16115;SDS011;8162;47.104;15.432;2023-08-06T02:06:43;1.30;;;1.20;;
16115;SDS011;8162;47.104;15.432;2023-08-06T02:09:44;1.87;;;1.40;;
16115;SDS011;8162;47.104;15.432;2023-08-06T02:12:45;5.67;;;1.80;;
16115;SDS011;8162;47.104;15.432;2023-08-06T02:15:46;2.77;;;1.50;;
16115;SDS011;8162;47.104;15.432;2023-08-06T02:18:47;2.50;;;1.20;;
16115;SDS011;8162;47.104;15.432;2023-08-06T02:21:48;1.40;;;1.13;;
16115;SDS011;8162;47.104;15.432;2023-08-06T02:24:49;2.17;;;1.17;;
16115;SDS011;8162;47.104;15.432;2023-08-06T02:27:50;1.30;;;1.20;;
16115;SDS011;8162;47.104;15.432;2023-08-06T02:30:52;5.07;;;1.30;;
16115;SDS011;8162;47.104;15.432;2023-08-06T02:33:53;2.97;;;1.20;;
16115;SDS011;8162;47.104;15.432;2023-08-06T02:36:54;2.23;;;1.10;;
16115;SDS011;8162;47.104;15.432;2023-08-06T02:39:55;2.17;;;1.43;;
16115;SDS011;8162;47.104;15.432;2023-08-06T02:42:59;2.90;;;1.30;;
16115;SDS011;8162;47.104;15.432;2023-08-06T02:46:00;2.03;;;1.30;;
16115;SDS011;8162;47.104;15.432;2023-08-06T02:49:01;2.97;;;1.40;;
16115;SDS011;8162;47.104;15.432;2023-08-06T02:52:02;2.80;;;1.40;;
16115;SDS011;8162;47.104;15.432;2023-08-06T02:55:04;3.53;;;1.20;;
16115;SDS011;8162;47.104;15.432;2023-08-06T02:58:05;3.53;;;1.70;;
16115;SDS011;8162;47.104;15.432;2023-08-06T03:01:06;3.53;;;1.60;;
16115;SDS011;8162;47.104;15.432;2023-08-06T03:04:07;3.67;;;1.63;;
16115;SDS011;8162;47.104;15.432;2023-08-06T03:07:08;2.90;;;1.30;;
16115;SDS011;8162;47.104;15.432;2023-08-06T03:10:09;1.50;;;1.10;;
16115;SDS011;8162;47.104;15.432;2023-08-06T03:13:10;2.17;;;1.20;;
16115;SDS011;8162;47.104;15.432;2023-08-06T03:16:11;1.83;;;1.40;;
16115;SDS011;8162;47.104;15.432;2023-08-06T03:19:12;5.47;;;1.30;;
16115;SDS011;8162;47.104;15.432;2023-08-06T03:22:13;2.97;;;1.33;;
16115;SDS011;8162;47.104;15.432;2023-08-06T03:25:14;4.80;;;1.40;;
16115;SDS011;8162;47.104;15.432;2023-08-06T03:28:15;2.13;;;1.50;;
16115;SDS011;8162;47.104;15.432;2023-08-06T03:31:17;3.37;;;1.37;;
16115;SDS011;8162;47.104;15.432;2023-08-06T03:34:18;2.23;;;1.80;;
16115;SDS011;8162;47.104;15.432;2023-08-06T03:37:19;2.63;;;1.90;;
16115;SDS011;8162;47.104;15.432;2023-08-06T03:40:20;2.07;;;1.80;;
16115;SDS011;8162;47.104;15.432;2023-08-06T03:43:21;2.60;;;2.07;;
16115;SDS011;8162;47.104;15.432;2023-08-06T03:46:22;2.20;;;2.00;;
16115;SDS011;8162;47.104;15.432;2023-08-06T03:49:23;4.40;;;2.23;;
16115;SDS011;8162;47.104;15.432;2023-08-06T03:52:24;2.60;;;1.60;;
16115;SDS011;8162;47.104;15.432;2023-08-06T03:55:25;2.50;;;1.70;;
16115;SDS011;8162;47.104;15.432;2023-08-06T03:58:26;2.93;;;1.90;;
16115;SDS011;8162;47.104;15.432;2023-08-06T04:01:27;1.90;;;1.77;;
16115;SDS011;8162;47.104;15.432;2023-08-06T04:04:28;4.00;;;1.97;;
16115;SDS011;8162;47.104;15.432;2023-08-06T04:07:29;2.40;;;1.80;;
16115;SDS011;8162;47.104;15.432;2023-08-06T04:10:30;2.40;;;2.20;;
16115;SDS011;8162;47.104;15.432;2023-08-06T04:13:31;1.80;;;1.70;;
16115;SDS011;8162;47.104;15.432;2023-08-06T04:16:32;2.60;;;1.80;;
16115;SDS011;8162;47.104;15.432;2023-08-06T04:19:33;3.20;;;1.90;;
16115;SDS011;8162;47.104;15.432;2023-08-06T04:22:34;2.10;;;1.70;;
16115;SDS011;8162;47.104;15.432;2023-08-06T04:25:35;3.73;;;2.40;;
16115;SDS011;8162;47.104;15.432;2023-08-06T04:28:36;4.03;;;3.20;;
16115;SDS011;8162;47.104;15.432;2023-08-06T04:31:37;2.50;;;2.30;;
16115;SDS011;8162;47.104;15.432;2023-08-06T04:34:38;3.57;;;2.60;;
16115;SDS011;8162;47.104;15.432;2023-08-06T04:37:39;4.13;;;2.10;;
16115;SDS011;8162;47.104;15.432;2023-08-06T04:40:41;5.30;;;2.20;;
16115;SDS011;8162;47.104;15.432;2023-08-06T04:43:42;2.57;;;2.03;;
16115;SDS011;8162;47.104;15.432;2023-08-06T04:46:43;2.43;;;1.80;;
16115;SDS011;8162;47.104;15.432;2023-08-06T04:49:44;5.47;;;2.50;;
16115;SDS011;8162;47.104;15.432;2023-08-06T04:52:46;2.93;;;2.27;;
16115;SDS011;8162;47.104;15.432;2023-08-06T04:55:47;4.27;;;2.13;;
16115;SDS011;8162;47.104;15.432;2023-08-06T04:58:48;3.73;;;1.80;;
16115;SDS011;8162;47.104;15.432;2023-08-06T05:01:49;3.53;;;2.13;;
16115;SDS011;8162;47.104;15.432;2023-08-06T05:04:50;5.83;;;2.03;;
16115;SDS011;8162;47.104;15.432;2023-08-06T05:07:51;2.07;;;1.80;;
16115;SDS011;8162;47.104;15.432;2023-08-06T05:10:52;4.93;;;2.30;;
16115;SDS011;8162;47.104;15.432;2023-08-06T05:13:53;2.73;;;2.00;;
16115;SDS011;8162;47.104;15.432;2023-08-06T05:16:54;1.70;;;1.60;;
16115;SDS011;8162;47.104;15.432;2023-08-06T05:19:55;2.37;;;2.17;;
16115;SDS011;8162;47.104;15.432;2023-08-06T05:22:56;2.27;;;2.07;;
16115;SDS011;8162;47.104;15.432;2023-08-06T05:25:57;2.13;;;1.93;;
16115;SDS011;8162;47.104;15.432;2023-08-06T05:28:58;2.37;;;2.00;;
16115;SDS011;8162;47.104;15.432;2023-08-06T05:32:00;2.60;;;2.40;;
16115;SDS011;8162;47.104;15.432;2023-08-06T05:35:01;4.30;;;2.20;;
16115;SDS011;8162;47.104;15.432;2023-08-06T05:38:02;3.03;;;2.20;;
16115;SDS011;8162;47.104;15.432;2023-08-06T05:41:03;2.87;;;2.20;;
16115;SDS011;8162;47.104;15.432;2023-08-06T05:44:04;3.87;;;2.20;;
16115;SDS011;8162;47.104;15.432;2023-08-06T05:47:05;3.93;;;2.00;;
16115;SDS011;8162;47.104;15.432;2023-08-06T05:50:07;3.70;;;2.13;;
16115;SDS011;8162;47.104;15.432;2023-08-06T05:53:09;5.63;;;3.07;;
16115;SDS011;8162;47.104;15.432;2023-08-06T05:56:10;2.37;;;2.17;;
16115;SDS011;8162;47.104;15.432;2023-08-06T05:59:11;4.07;;;3.77;;
16115;SDS011;8162;47.104;15.432;2023-08-06T06:02:12;4.83;;;2.97;;
16115;SDS011;8162;47.104;15.432;2023-08-06T06:05:13;4.90;;;3.17;;
16115;SDS011;8162;47.104;15.432;2023-08-06T06:08:14;5.10;;;3.23;;
16115;SDS011;8162;47.104;15.432;2023-08-06T06:11:15;4.07;;;3.13;;
16115;SDS011;8162;47.104;15.432;2023-08-06T06:14:16;3.80;;;3.40;;
16115;SDS011;8162;47.104;15.432;2023-08-06T06:17:17;3.97;;;3.60;;
16115;SDS011;8162;47.104;15.432;2023-08-06T06:20:19;3.93;;;3.60;;
16115;SDS011;8162;47.104;15.432;2023-08-06T06:23:20;6.00;;;3.07;;
16115;SDS011;8162;47.104;15.432;2023-08-06T06:26:21;5.67;;;3.93;;
16115;SDS011;8162;47.104;15.432;2023-08-06T06:29:22;5.47;;;4.97;;
16115;SDS011;8162;47.104;15.432;2023-08-06T06:32:23;5.70;;;4.80;;
16115;SDS011;8162;47.104;15.432;2023-08-06T06:35:24;5.43;;;4.93;;
16115;SDS011;8162;47.104;15.432;2023-08-06T06:38:25;6.23;;;5.50;;
16115;SDS011;8162;47.104;15.432;2023-08-06T06:41:26;6.13;;;5.53;;
16115;SDS011;8162;47.104;15.432;2023-08-06T06:44:29;5.77;;;5.13;;
16115;SDS011;8162;47.104;15.432;2023-08-06T06:47:30;5.73;;;5.13;;
16115;SDS011;8162;47.104;15.432;2023-08-06T06:50:31;6.53;;;5.53;;
16115;SDS011;8162;47.104;15.432;2023-08-06T06:53:32;6.97;;;6.35;;
16115;SDS011;8162;47.104;15.432;2023-08-06T06:56:33;5.93;;;5.43;;
16115;SDS011;8162;47.104;15.432;2023-08-06T06:59:35;7.20;;;6.37;;
16115;SDS011;8162;47.104;15.432;2023-08-06T07:02:36;6.73;;;5.83;;
16115;SDS011;8162;47.104;15.432;2023-08-06T07:05:37;6.87;;;6.17;;
16115;SDS011;8162;47.104;15.432;2023-08-06T07:08:38;10.03;;;7.97;;
16115;SDS011;8162;47.104;15.432;2023-08-06T07:11:39;8.37;;;7.50;;
16115;SDS011;8162;47.104;15.432;2023-08-06T07:14:41;11.53;;;10.30;;
16115;SDS011;8162;47.104;15.432;2023-08-06T07:17:43;13.23;;;9.90;;
16115;SDS011;8162;47.104;15.432;2023-08-06T07:20:47;9.40;;;8.50;;
16115;SDS011;8162;47.104;15.432;2023-08-06T07:23:48;10.97;;;8.33;;
16115;SDS011;8162;47.104;15.432;2023-08-06T07:26:49;8.57;;;7.77;;
16115;SDS011;8162;47.104;15.432;2023-08-06T07:29:52;9.10;;;7.83;;
16115;SDS011;8162;47.104;15.432;2023-08-06T07:32:53;6.53;;;6.00;;
16115;SDS011;8162;47.104;15.432;2023-08-06T07:35:54;6.23;;;5.63;;
16115;SDS011;8162;47.104;15.432;2023-08-06T07:38:55;4.73;;;4.33;;
16115;SDS011;8162;47.104;15.432;2023-08-06T07:41:56;4.33;;;3.93;;
16115;SDS011;8162;47.104;15.432;2023-08-06T07:44:58;5.50;;;3.77;;
16115;SDS011;8162;47.104;15.432;2023-08-06T07:47:59;3.97;;;3.47;;
16115;SDS011;8162;47.104;15.432;2023-08-06T07:51:00;4.47;;;3.70;;
16115;SDS011;8162;47.104;15.432;2023-08-06T07:54:01;5.00;;;4.53;;
16115;SDS011;8162;47.104;15.432;2023-08-06T07:57:03;4.07;;;3.67;;
16115;SDS011;8162;47.104;15.432;2023-08-06T08:00:04;5.50;;;3.70;;
16115;SDS011;8162;47.104;15.432;2023-08-06T08:03:05;4.00;;;3.30;;
16115;SDS011;8162;47.104;15.432;2023-08-06T08:06:06;3.57;;;3.27;;
16115;SDS011;8162;47.104;15.432;2023-08-06T08:09:07;3.03;;;2.83;;
16115;SDS011;8162;47.104;15.432;2023-08-06T08:12:08;3.40;;;3.10;;
16115;SDS011;8162;47.104;15.432;2023-08-06T08:15:09;3.63;;;3.33;;
16115;SDS011;8162;47.104;15.432;2023-08-06T08:18:11;3.97;;;3.13;;
16115;SDS011;8162;47.104;15.432;2023-08-06T08:21:12;3.70;;;3.10;;
16115;SDS011;8162;47.104;15.432;2023-08-06T08:24:13;4.57;;;3.47;;
16115;SDS011;8162;47.104;15.432;2023-08-06T08:27:13;3.80;;;3.10;;
16115;SDS011;8162;47.104;15.432;2023-08-06T08:30:15;3.67;;;3.37;;
16115;SDS011;8162;47.104;15.432;2023-08-06T08:33:16;4.20;;;3.80;;
16115;SDS011;8162;47.104;15.432;2023-08-06T08:36:17;5.30;;;3.63;;
16115;SDS011;8162;47.104;15.432;2023-08-06T08:39:18;3.77;;;3.47;;
16115;SDS011;8162;47.104;15.432;2023-08-06T08:42:19;4.30;;;3.93;;
16115;SDS011;8162;47.104;15.432;2023-08-06T08:45:20;4.40;;;4.00;;
16115;SDS011;8162;47.104;15.432;2023-08-06T08:48:23;4.00;;;3.70;;
16115;SDS011;8162;47.104;15.432;2023-08-06T08:51:24;4.93;;;4.43;;
16115;SDS011;8162;47.104;15.432;2023-08-06T08:54:26;4.70;;;4.30;;
16115;SDS011;8162;47.104;15.432;2023-08-06T08:57:27;3.70;;;3.40;;
16115;SDS011;8162;47.104;15.432;2023-08-06T09:00:28;3.83;;;2.93;;
16115;SDS011;8162;47.104;15.432;2023-08-06T09:03:30;3.20;;;3.00;;
16115;SDS011;8162;47.104;15.432;2023-08-06T09:06:31;2.83;;;2.47;;
16115;SDS011;8162;47.104;15.432;2023-08-06T09:09:34;3.57;;;2.60;;
16115;SDS011;8162;47.104;15.432;2023-08-06T09:12:39;2.50;;;2.30;;
16115;SDS011;8162;47.104;15.432;2023-08-06T09:15:40;2.20;;;2.00;;
16115;SDS011;8162;47.104;15.432;2023-08-06T09:18:41;2.43;;;2.20;;
16115;SDS011;8162;47.104;15.432;2023-08-06T09:21:43;2.10;;;1.67;;
16115;SDS011;8162;47.104;15.432;2023-08-06T09:24:44;3.13;;;2.03;;
16115;SDS011;8162;47.104;15.432;2023-08-06T09:27:46;2.30;;;2.10;;
16115;SDS011;8162;47.104;15.432;2023-08-06T09:30:47;2.10;;;1.90;;
16115;SDS011;8162;47.104;15.432;2023-08-06T09:33:49;2.23;;;2.03;;
16115;SDS011;8162;47.104;15.432;2023-08-06T09:36:50;4.10;;;2.07;;
16115;SDS011;8162;47.104;15.432;2023-08-06T09:39:52;2.60;;;2.40;;
16115;SDS011;8162;47.104;15.432;2023-08-06T09:42:54;3.90;;;1.97;;
16115;SDS011;8162;47.104;15.432;2023-08-06T09:45:55;2.30;;;2.10;;
16115;SDS011;8162;47.104;15.432;2023-08-06T09:48:56;2.20;;;1.93;;
16115;SDS011;8162;47.104;15.432;2023-08-06T09:51:57;2.80;;;2.60;;
16115;SDS011;8162;47.104;15.432;2023-08-06T09:54:59;2.60;;;2.40;;
16115;SDS011;8162;47.104;15.432;2023-08-06T09:58:01;2.33;;;2.10;;
16115;SDS011;8162;47.104;15.432;2023-08-06T10:01:02;2.47;;;2.27;;
16115;SDS011;8162;47.104;15.432;2023-08-06T10:04:05;3.00;;;2.60;;
16115;SDS011;8162;47.104;15.432;2023-08-06T10:07:11;2.30;;;2.10;;
16115;SDS011;8162;47.104;15.432;2023-08-06T10:10:12;2.60;;;2.07;;
16115;SDS011;8162;47.104;15.432;2023-08-06T10:13:13;3.03;;;2.60;;
16115;SDS011;8162;47.104;15.432;2023-08-06T10:16:15;2.80;;;2.50;;
16115;SDS011;8162;47.104;15.432;2023-08-06T10:19:17;4.57;;;2.20;;
16115;SDS011;8162;47.104;15.432;2023-08-06T10:22:18;2.63;;;2.20;;
16115;SDS011;8162;47.104;15.432;2023-08-06T10:25:19;2.33;;;2.00;;
16115;SDS011;8162;47.104;15.432;2023-08-06T10:28:20;2.37;;;1.97;;
16115;SDS011;8162;47.104;15.432;2023-08-06T10:31:52;2.20;;;2.00;;
16115;SDS011;8162;47.104;15.432;2023-08-06T10:34:56;1.83;;;1.73;;
16115;SDS011;8162;47.104;15.432;2023-08-06T10:38:10;2.27;;;1.87;;
16115;SDS011;8162;47.104;15.432;2023-08-06T10:41:27;1.30;;;1.23;;
16115;SDS011;8162;47.104;15.432;2023-08-06T10:44:28;2.70;;;1.43;;
16115;SDS011;8162;47.104;15.432;2023-08-06T10:47:29;1.73;;;1.23;;
16115;SDS011;8162;47.104;15.432;2023-08-06T10:50:30;1.90;;;1.60;;
16115;SDS011;8162;47.104;15.432;2023-08-06T10:53:31;1.57;;;1.47;;
16115;SDS011;8162;47.104;15.432;2023-08-06T10:56:39;1.50;;;1.40;;
16115;SDS011;8162;47.104;15.432;2023-08-06T10:59:40;1.13;;;1.10;;
16115;SDS011;8162;47.104;15.432;2023-08-06T11:02:41;2.57;;;1.30;;
16115;SDS011;8162;47.104;15.432;2023-08-06T11:05:48;1.30;;;1.20;;
16115;SDS011;8162;47.104;15.432;2023-08-06T11:08:51;0.87;;;0.87;;
16115;SDS011;8162;47.104;15.432;2023-08-06T11:11:53;0.90;;;0.90;;
16115;SDS011;8162;47.104;15.432;2023-08-06T11:14:54;0.90;;;0.80;;
16115;SDS011;8162;47.104;15.432;2023-08-06T11:17:55;1.00;;;0.90;;
16115;SDS011;8162;47.104;15.432;2023-08-06T11:20:58;1.00;;;0.90;;
16115;SDS011;8162;47.104;15.432;2023-08-06T11:24:00;0.70;;;0.70;;
16115;SDS011;8162;47.104;15.432;2023-08-06T11:27:02;1.03;;;0.90;;
16115;SDS011;8162;47.104;15.432;2023-08-06T11:30:03;0.80;;;0.80;;
16115;SDS011;8162;47.104;15.432;2023-08-06T11:33:06;1.60;;;1.17;;
16115;SDS011;8162;47.104;15.432;2023-08-06T11:36:09;1.10;;;1.00;;
16115;SDS011;8162;47.104;15.432;2023-08-06T11:39:10;1.00;;;1.00;;
16115;SDS011;8162;47.104;15.432;2023-08-06T11:42:11;2.63;;;0.90;;
16115;SDS011;8162;47.104;15.432;2023-08-06T11:45:13;1.00;;;0.77;;
16115;SDS011;8162;47.104;15.432;2023-08-06T11:48:14;1.23;;;1.13;;
16115;SDS011;8162;47.104;15.432;2023-08-06T11:51:15;1.00;;;1.00;;
16115;SDS011;8162;47.104;15.432;2023-08-06T11:54:16;1.00;;;0.90;;
16115;SDS011;8162;47.104;15.432;2023-08-06T11:57:17;1.23;;;1.10;;
16115;SDS011;8162;47.104;15.432;2023-08-06T12:00:18;1.47;;;1.00;;
16115;SDS011;8162;47.104;15.432;2023-08-06T12:03:21;0.83;;;0.83;;
16115;SDS011;8162;47.104;15.432;2023-08-06T12:06:27;1.17;;;1.00;;
16115;SDS011;8162;47.104;15.432;2023-08-06T12:09:28;1.70;;;0.80;;
16115;SDS011;8162;47.104;15.432;2023-08-06T12:12:29;1.10;;;1.00;;
16115;SDS011;8162;47.104;15.432;2023-08-06T12:15:30;0.70;;;0.70;;
16115;SDS011;8162;47.104;15.432;2023-08-06T12:18:31;1.60;;;0.70;;
16115;SDS011;8162;47.104;15.432;2023-08-06T12:21:32;0.90;;;0.90;;
16115;SDS011;8162;47.104;15.432;2023-08-06T12:24:34;0.60;;;0.53;;
16115;SDS011;8162;47.104;15.432;2023-08-06T12:27:35;0.80;;;0.80;;
16115;SDS011;8162;47.104;15.432;2023-08-06T12:30:36;0.53;;;0.53;;
16115;SDS011;8162;47.104;15.432;2023-08-06T12:33:37;0.80;;;0.80;;
16115;SDS011;8162;47.104;15.432;2023-08-06T12:36:38;0.50;;;0.50;;
16115;SDS011;8162;47.104;15.432;2023-08-06T12:39:39;1.10;;;0.90;;
16115;SDS011;8162;47.104;15.432;2023-08-06T12:42:40;0.87;;;0.60;;
16115;SDS011;8162;47.104;15.432;2023-08-06T12:45:41;0.87;;;0.60;;
16115;SDS011;8162;47.104;15.432;2023-08-06T12:48:42;0.60;;;0.60;;
16115;SDS011;8162;47.104;15.432;2023-08-06T12:51:43;0.70;;;0.47;;
16115;SDS011;8162;47.104;15.432;2023-08-06T12:54:45;1.73;;;0.77;;
16115;SDS011;8162;47.104;15.432;2023-08-06T12:57:46;0.40;;;0.40;;
16115;SDS011;8162;47.104;15.432;2023-08-06T13:00:47;0.77;;;0.60;;
16115;SDS011;8162;47.104;15.432;2023-08-06T13:03:48;0.60;;;0.60;;
16115;SDS011;8162;47.104;15.432;2023-08-06T13:06:50;2.10;;;0.80;;
16115;SDS011;8162;47.104;15.432;2023-08-06T13:09:51;0.77;;;0.57;;
16115;SDS011;8162;47.104;15.432;2023-08-06T13:12:52;0.43;;;0.43;;
16115;SDS011;8162;47.104;15.432;2023-08-06T13:15:54;0.40;;;0.40;;
16115;SDS011;8162;47.104;15.432;2023-08-06T13:18:55;0.43;;;0.43;;
16115;SDS011;8162;47.104;15.432;2023-08-06T13:22:00;0.40;;;0.40;;
16115;SDS011;8162;47.104;15.432;2023-08-06T13:25:02;0.57;;;0.50;;
16115;SDS011;8162;47.104;15.432;2023-08-06T13:28:04;0.40;;;0.40;;
16115;SDS011;8162;47.104;15.432;2023-08-06T13:31:05;0.93;;;0.40;;
16115;SDS011;8162;47.104;15.432;2023-08-06T13:34:07;3.13;;;0.50;;
16115;SDS011;8162;47.104;15.432;2023-08-06T13:37:08;0.73;;;0.50;;
16115;SDS011;8162;47.104;15.432;2023-08-06T13:40:10;0.50;;;0.40;;
16115;SDS011;8162;47.104;15.432;2023-08-06T13:43:12;0.50;;;0.50;;
16115;SDS011;8162;47.104;15.432;2023-08-06T13:46:14;1.10;;;0.40;;
16115;SDS011;8162;47.104;15.432;2023-08-06T13:49:17;0.70;;;0.47;;
16115;SDS011;8162;47.104;15.432;2023-08-06T13:52:18;2.40;;;0.60;;
16115;SDS011;8162;47.104;15.432;2023-08-06T13:55:20;0.97;;;0.40;;
16115;SDS011;8162;47.104;15.432;2023-08-06T13:58:21;0.30;;;0.30;;
16115;SDS011;8162;47.104;15.432;2023-08-06T14:01:22;0.30;;;0.30;;
16115;SDS011;8162;47.104;15.432;2023-08-06T14:04:24;0.67;;;0.40;;
16115;SDS011;8162;47.104;15.432;2023-08-06T14:07:25;1.10;;;0.50;;
16115;SDS011;8162;47.104;15.432;2023-08-06T14:10:27;0.57;;;0.50;;
16115;SDS011;8162;47.104;15.432;2023-08-06T14:13:28;0.53;;;0.53;;
16115;SDS011;8162;47.104;15.432;2023-08-06T14:16:29;1.17;;;0.60;;
16115;SDS011;8162;47.104;15.432;2023-08-06T14:19:30;0.40;;;0.40;;
16115;SDS011;8162;47.104;15.432;2023-08-06T14:22:32;0.50;;;0.40;;
16115;SDS011;8162;47.104;15.432;2023-08-06T14:25:33;0.50;;;0.50;;
16115;SDS011;8162;47.104;15.432;2023-08-06T14:28:34;1.10;;;0.70;;
16115;SDS011;8162;47.104;15.432;2023-08-06T14:31:35;0.37;;;0.37;;
16115;SDS011;8162;47.104;15.432;2023-08-06T14:34:37;0.73;;;0.40;;
16115;SDS011;8162;47.104;15.432;2023-08-06T14:37:39;1.23;;;0.40;;
16115;SDS011;8162;47.104;15.432;2023-08-06T14:40:42;0.30;;;0.30;;
16115;SDS011;8162;47.104;15.432;2023-08-06T14:43:44;0.27;;;0.27;;
16115;SDS011;8162;47.104;15.432;2023-08-06T14:46:45;0.30;;;0.30;;
16115;SDS011;8162;47.104;15.432;2023-08-06T14:49:46;0.60;;;0.40;;
16115;SDS011;8162;47.104;15.432;2023-08-06T14:52:49;0.67;;;0.37;;
16115;SDS011;8162;47.104;15.432;2023-08-06T14:55:50;1.57;;;0.40;;
16115;SDS011;8162;47.104;15.432;2023-08-06T14:58:51;0.40;;;0.30;;
16115;SDS011;8162;47.104;15.432;2023-08-06T15:01:53;0.40;;;0.40;;
16115;SDS011;8162;47.104;15.432;2023-08-06T15:04:54;0.10;;;0.10;;
16115;SDS011;8162;47.104;15.432;2023-08-06T15:07:55;1.13;;;0.30;;
16115;SDS011;8162;47.104;15.432;2023-08-06T15:10:56;0.97;;;0.40;;
16115;SDS011;8162;47.104;15.432;2023-08-06T15:13:58;0.10;;;0.10;;
16115;SDS011;8162;47.104;15.432;2023-08-06T15:17:02;0.10;;;0.10;;
16115;SDS011;8162;47.104;15.432;2023-08-06T15:20:03;0.43;;;0.13;;
16115;SDS011;8162;47.104;15.432;2023-08-06T15:23:05;0.17;;;0.13;;
16115;SDS011;8162;47.104;15.432;2023-08-06T15:26:06;0.30;;;0.30;;
16115;SDS011;8162;47.104;15.432;2023-08-06T15:29:07;0.10;;;0.10;;
16115;SDS011;8162;47.104;15.432;2023-08-06T15:32:11;0.20;;;0.20;;
16115;SDS011;8162;47.104;15.432;2023-08-06T15:35:13;0.67;;;0.20;;
16115;SDS011;8162;47.104;15.432;2023-08-06T15:38:15;0.20;;;0.20;;
16115;SDS011;8162;47.104;15.432;2023-08-06T15:41:16;3.73;;;0.60;;
16115;SDS011;8162;47.104;15.432;2023-08-06T15:44:17;0.10;;;0.10;;
16115;SDS011;8162;47.104;15.432;2023-08-06T15:47:19;1.20;;;0.20;;
16115;SDS011;8162;47.104;15.432;2023-08-06T15:50:20;1.20;;;0.10;;
16115;SDS011;8162;47.104;15.432;2023-08-06T15:53:21;0.20;;;0.20;;
16115;SDS011;8162;47.104;15.432;2023-08-06T15:56:22;0.67;;;0.30;;
16115;SDS011;8162;47.104;15.432;2023-08-06T15:59:24;0.87;;;0.20;;
16115;SDS011;8162;47.104;15.432;2023-08-06T16:02:26;2.37;;;0.40;;
16115;SDS011;8162;47.104;15.432;2023-08-06T16:05:27;0.67;;;0.30;;
16115;SDS011;8162;47.104;15.432;2023-08-06T16:08:28;0.30;;;0.20;;
16115;SDS011;8162;47.104;15.432;2023-08-06T16:11:30;1.07;;;0.20;;
16115;SDS011;8162;47.104;15.432;2023-08-06T16:14:31;0.20;;;0.20;;
16115;SDS011;8162;47.104;15.432;2023-08-06T16:17:32;1.53;;;0.37;;
16115;SDS011;8162;47.104;15.432;2023-08-06T16:20:40;0.40;;;0.30;;
16115;SDS011;8162;47.104;15.432;2023-08-06T16:23:42;1.50;;;0.30;;
16115;SDS011;8162;47.104;15.432;2023-08-06T16:26:43;1.30;;;0.23;;
16115;SDS011;8162;47.104;15.432;2023-08-06T16:29:44;0.47;;;0.47;;
16115;SDS011;8162;47.104;15.432;2023-08-06T16:32:48;0.33;;;0.33;;
16115;SDS011;8162;47.104;15.432;2023-08-06T16:35:49;0.73;;;0.30;;
16115;SDS011;8162;47.104;15.432;2023-08-06T16:38:51;0.30;;;0.30;;
16115;SDS011;8162;47.104;15.432;2023-08-06T16:41:54;0.20;;;0.20;;
16115;SDS011;8162;47.104;15.432;2023-08-06T16:44:58;0.67;;;0.40;;
16115;SDS011;8162;47.104;15.432;2023-08-06T16:47:59;0.53;;;0.20;;
16115;SDS011;8162;47.104;15.432;2023-08-06T16:51:00;0.30;;;0.30;;
16115;SDS011;8162;47.104;15.432;2023-08-06T16:54:02;2.40;;;0.30;;
16115;SDS011;8162;47.104;15.432;2023-08-06T16:57:03;2.73;;;0.40;;
16115;SDS011;8162;47.104;15.432;2023-08-06T17:00:04;1.77;;;0.30;;
16115;SDS011;8162;47.104;15.432;2023-08-06T17:03:06;1.77;;;0.30;;
16115;SDS011;8162;47.104;15.432;2023-08-06T17:06:07;0.60;;;0.20;;
16115;SDS011;8162;47.104;15.432;2023-08-06T17:09:14;1.83;;;0.30;;
16115;SDS011;8162;47.104;15.432;2023-08-06T17:12:15;0.50;;;0.30;;
16115;SDS011;8162;47.104;15.432;2023-08-06T17:15:20;0.30;;;0.30;;
16115;SDS011;8162;47.104;15.432;2023-08-06T17:18:21;0.33;;;0.30;;
16115;SDS011;8162;47.104;15.432;2023-08-06T17:21:23;1.03;;;0.50;;
16115;SDS011;8162;47.104;15.432;2023-08-06T17:24:25;0.30;;;0.30;;
16115;SDS011;8162;47.104;15.432;2023-08-06T17:27:26;0.83;;;0.50;;
16115;SDS011;8162;47.104;15.432;2023-08-06T17:30:27;0.73;;;0.40;;
16115;SDS011;8162;47.104;15.432;2023-08-06T17:33:28;1.10;;;0.50;;
16115;SDS011;8162;47.104;15.432;2023-08-06T17:36:30;2.90;;;0.95;;
16115;SDS011;8162;47.104;15.432;2023-08-06T17:39:31;3.47;;;0.90;;
16115;SDS011;8162;47.104;15.432;2023-08-06T17:42:32;0.80;;;0.50;;
16115;SDS011;8162;47.104;15.432;2023-08-06T17:45:34;2.73;;;0.60;;
16115;SDS011;8162;47.104;15.432;2023-08-06T17:48:36;1.23;;;0.50;;
16115;SDS011;8162;47.104;15.432;2023-08-06T17:51:38;1.40;;;0.50;;
16115;SDS011;8162;47.104;15.432;2023-08-06T17:54:39;1.30;;;0.50;;
16115;SDS011;8162;47.104;15.432;2023-08-06T17:57:40;0.83;;;0.50;;
16115;SDS011;8162;47.104;15.432;2023-08-06T18:00:42;2.97;;;0.60;;
16115;SDS011;8162;47.104;15.432;2023-08-06T18:03:48;5.97;;;0.70;;
16115;SDS011;8162;47.104;15.432;2023-08-06T18:06:50;1.13;;;0.90;;
16115;SDS011;8162;47.104;15.432;2023-08-06T18:09:51;4.53;;;0.80;;
16115;SDS011;8162;47.104;15.432;2023-08-06T18:12:52;2.77;;;0.73;;
16115;SDS011;8162;47.104;15.432;2023-08-06T18:15:53;4.23;;;0.80;;
16115;SDS011;8162;47.104;15.432;2023-08-06T18:18:55;0.63;;;0.47;;